Terminal Aerodrome Forecast
Issued by NWS

Home | Current Version | Previous Version | Graphics & Text | Print | Product List | Glossary On
Versions: 1 2 3 4 5 6 7 8 9 10 11 12 13 14 15 16 17 18 19 20
000
FTUS43 KGRB 301700
TAFCWA
TAF
KCWA 301727Z 3018/0118 07005KT P6SM BKN015
      TEMPO 3018/3020 SCT015
     FM302000 11005KT P6SM SCT020 SCT250
     FM010400 12004KT P6SM BKN015
     FM010800 13004KT P6SM SCT008 OVC015
      TEMPO 0109/0113 5SM BR BKN008
     FM011500 15007KT P6SM VCSH BKN018 OVC040=

USA.gov is the U.S. government's official web portal to all federal, state and local government web resources and services.